Time;durP1;ratioP1;P1;durP2;ratioP2;P2;SDS_P1;SDS_P2;PMS_P1;PMS_P2;Temp;Humidity;BMP_temperature;BMP_pressure;BME280_temperature;BME280_humidity;BME280_pressure;Samples;Min_cycle;Max_cycle;Signal;HPM_P1;HPM_P2
2022/01/29 00:01:06;;;;;;;21.88;6.28;;;3.90;99.90;;;3.95;68.28;102206.81;4993032;28;20179;-70
2022/01/29 00:03:35;;;;;;;25.58;5.50;;;3.90;99.90;;;3.97;68.98;102209.38;4993152;28;20194;-71
2022/01/29 00:06:04;;;;;;;17.65;4.93;;;3.90;99.90;;;4.01;68.24;102200.97;4993544;28;20203;-70
2022/01/29 00:08:33;;;;;;;17.23;4.70;;;4.00;99.90;;;3.97;68.30;102196.00;4999897;28;20299;-71
2022/01/29 00:11:08;;;;;;;19.85;5.07;;;4.00;99.90;;;3.90;68.27;102199.16;5004127;28;20234;-71
2022/01/29 00:13:38;;;;;;;16.08;4.60;;;3.90;99.50;;;3.95;68.11;102185.41;5004530;28;20178;-69
2022/01/29 00:16:06;;;;;;;19.85;4.88;;;3.90;99.20;;;3.97;68.47;102187.97;5008506;28;20577;-71
2022/01/29 00:18:36;;;;;;;11.25;4.70;;;4.00;99.90;;;4.01;67.96;102186.72;5005735;28;20211;-71
2022/01/29 00:21:04;;;;;;;12.68;5.43;;;4.00;99.20;;;3.98;67.83;102184.28;5004901;28;20200;-70
2022/01/29 00:23:33;;;;;;;22.88;6.38;;;4.00;98.40;;;3.96;68.33;102191.59;5004583;28;20198;-71
2022/01/29 00:26:01;;;;;;;17.38;4.75;;;4.00;98.70;;;3.93;68.08;102176.63;5004241;28;20202;-70
2022/01/29 00:28:32;;;;;;;23.85;5.10;;;4.00;98.60;;;3.86;68.41;102170.94;5000648;28;20261;-71
2022/01/29 00:31:03;;;;;;;21.95;5.88;;;3.90;98.80;;;3.98;68.20;102168.19;4995818;28;20630;-71
2022/01/29 00:33:31;;;;;;;17.95;6.00;;;3.90;99.70;;;3.83;68.25;102160.47;4996021;28;20187;-70
2022/01/29 00:36:00;;;;;;;17.58;6.55;;;3.90;98.90;;;3.91;68.23;102158.03;4995409;28;20242;-69
2022/01/29 00:38:28;;;;;;;15.85;5.07;;;3.90;99.50;;;4.02;68.16;102159.78;4996569;28;20277;-71
2022/01/29 00:40:57;;;;;;;13.95;4.78;;;4.00;98.90;;;4.03;67.95;102166.00;4995136;28;20179;-71
2022/01/29 00:43:26;;;;;;;11.00;4.47;;;4.00;98.00;;;4.03;68.07;102166.00;4993931;28;20198;-72
2022/01/29 00:45:55;;;;;;;17.20;4.75;;;4.00;97.70;;;4.10;67.87;102151.97;4976950;28;20219;-70
2022/01/29 00:48:25;;;;;;;14.05;4.57;;;4.10;97.50;;;4.21;67.36;102156.44;4995085;28;20269;-71
2022/01/29 00:50:53;;;;;;;14.88;4.25;;;4.20;96.60;;;4.16;67.46;102150.59;4994859;28;20186;-69
2022/01/29 00:53:21;;;;;;;22.10;5.70;;;4.10;96.00;;;4.27;66.99;102147.84;4995081;28;20179;-70
2022/01/29 00:55:49;;;;;;;25.38;5.20;;;4.20;95.20;;;4.26;67.03;102146.97;4994064;28;20198;-69
2022/01/29 00:58:18;;;;;;;15.45;5.47;;;4.20;95.40;;;4.31;67.02;102136.72;4995530;28;20309;-70
2022/01/29 01:00:46;;;;;;;21.30;5.63;;;4.20;95.40;;;4.31;67.24;102135.88;4995851;28;20222;-69
2022/01/29 01:03:15;;;;;;;15.27;4.68;;;4.30;95.00;;;4.25;67.03;102131.91;4995834;28;20512;-71
2022/01/29 01:05:44;;;;;;;21.65;6.35;;;4.30;94.20;;;4.31;67.09;102117.09;4977601;28;20293;-70
2022/01/29 01:08:13;;;;;;;15.52;4.25;;;4.30;95.00;;;4.29;67.05;102103.00;4999613;28;20272;-71
2022/01/29 01:10:41;;;;;;;17.75;6.28;;;4.30;94.70;;;4.20;67.91;102096.63;5005990;28;20179;-71
2022/01/29 01:13:09;;;;;;;17.70;5.22;;;4.20;95.30;;;4.30;67.38;102099.34;4997942;28;20552;-72
2022/01/29 01:15:38;;;;;;;15.05;5.10;;;4.20;96.50;;;4.33;67.42;102099.09;4994040;28;20218;-72
2022/01/29 01:18:07;;;;;;;25.25;8.82;;;4.30;95.80;;;4.37;67.43;102093.31;4993675;28;20203;-71
2022/01/29 01:20:35;;;;;;;14.90;6.07;;;4.30;96.50;;;4.27;67.52;102087.06;4993806;28;20658;-71
2022/01/29 01:23:05;;;;;;;15.77;5.57;;;4.30;95.70;;;4.38;66.86;102080.78;4993688;28;20703;-71
2022/01/29 01:25:33;;;;;;;19.98;4.13;;;4.30;94.90;;;4.36;66.85;102072.84;4993230;28;20427;-71
2022/01/29 01:28:02;;;;;;;25.98;6.10;;;4.30;93.60;;;4.32;66.87;102059.84;4992793;28;20284;-70
2022/01/29 01:30:30;;;;;;;17.45;5.30;;;4.30;93.60;;;4.26;66.97;102050.50;4993736;28;20183;-71
2022/01/29 01:33:00;;;;;;;16.73;5.13;;;4.30;93.60;;;4.30;67.03;102041.25;4993883;28;20202;-72
2022/01/29 01:35:36;;;;;;;14.60;4.40;;;4.30;94.70;;;4.41;67.01;102042.97;4994032;28;20182;-71
2022/01/29 01:38:12;;;;;;;20.30;5.10;;;4.30;94.60;;;4.38;66.97;102027.16;4993814;28;20210;-71
2022/01/29 01:40:45;;;;;;;21.67;5.22;;;4.30;94.70;;;4.37;67.01;102030.81;4994053;28;20525;-71
2022/01/29 01:43:13;;;;;;;30.27;6.10;;;4.30;94.30;;;4.41;66.95;102029.56;4993544;28;20437;-71
2022/01/29 01:45:41;;;;;;;27.42;6.88;;;4.40;93.90;;;4.30;66.95;102029.69;4976169;28;20253;-71
2022/01/29 01:48:11;;;;;;;21.58;5.50;;;4.30;93.20;;;4.44;66.56;102029.31;4993889;28;20210;-71
2022/01/29 01:50:39;;;;;;;13.35;5.47;;;4.40;93.20;;;4.30;67.57;102018.97;4993512;28;20241;-71
2022/01/29 01:53:10;;;;;;;17.05;6.63;;;4.30;95.20;;;4.36;66.93;102002.31;4994422;28;20581;-71
2022/01/29 01:55:39;;;;;;;18.85;5.20;;;4.30;93.30;;;4.31;67.24;101985.78;4995264;28;20198;-71
2022/01/29 01:58:07;;;;;;;19.98;6.30;;;4.30;94.80;;;4.38;68.01;101984.28;4994419;28;20572;-71
2022/01/29 02:00:36;;;;;;;18.00;5.72;;;4.30;95.50;;;4.48;67.51;101990.53;4993726;28;20225;-71
2022/01/29 02:03:04;;;;;;;22.25;5.30;;;4.40;96.10;;;4.56;66.80;101976.44;4990674;28;20573;-71
2022/01/29 02:05:33;;;;;;;19.45;6.20;;;4.50;94.00;;;4.62;67.00;101975.91;4993158;28;20183;-70
2022/01/29 02:08:03;;;;;;;18.20;5.25;;;4.50;94.50;;;4.60;67.42;101962.63;4993928;28;20305;-71
2022/01/29 02:10:33;;;;;;;19.92;4.65;;;4.50;95.20;;;4.36;68.00;101949.56;4995276;28;20187;-71
2022/01/29 02:13:03;;;;;;;25.17;4.75;;;4.40;95.70;;;4.15;67.98;101943.44;4993853;28;20187;-69
2022/01/29 02:15:33;;;;;;;16.42;4.75;;;4.30;95.90;;;4.18;68.38;101939.63;4995011;28;20191;-70
2022/01/29 02:18:01;;;;;;;10.85;4.25;;;4.20;97.90;;;4.22;68.44;101941.91;4995424;28;20298;-70
2022/01/29 02:20:32;;;;;;;14.45;4.60;;;4.10;99.80;;;4.21;68.62;101942.06;4976843;28;20194;-71
2022/01/29 02:23:02;;;;;;;22.75;6.40;;;4.20;99.90;;;4.24;68.62;101931.06;4978049;28;20191;-71
2022/01/29 02:25:38;;;;;;;18.80;6.50;;;4.20;99.90;;;4.22;69.27;101930.34;4994066;28;20194;-69
2022/01/29 02:28:10;;;;;;;17.80;6.60;;;4.20;99.90;;;4.25;69.06;101920.22;4975154;28;20584;-72
2022/01/29 02:30:41;;;;;;;17.52;5.90;;;4.20;99.90;;;4.11;70.05;101919.75;4992961;28;20174;-70
2022/01/29 02:33:13;;;;;;;22.42;5.70;;;4.10;99.90;;;4.27;69.61;101917.38;4992267;28;20241;-71
2022/01/29 02:35:45;;;;;;;13.23;5.57;;;4.20;99.90;;;4.17;69.31;101913.81;4992486;28;20190;-71
2022/01/29 02:38:18;;;;;;;18.10;5.72;;;4.20;99.90;;;4.16;70.03;101918.38;4992018;28;20211;-70
2022/01/29 02:40:49;;;;;;;15.25;5.68;;;4.10;99.90;;;4.28;69.98;101924.44;4991832;28;20175;-70
2022/01/29 02:43:20;;;;;;;17.65;6.10;;;4.20;99.90;;;4.25;71.17;101920.22;4992237;28;20233;-70
2022/01/29 02:45:52;;;;;;;14.40;6.45;;;4.20;99.90;;;4.26;71.31;101915.72;4992232;28;20197;-71
2022/01/29 02:48:22;;;;;;;13.77;7.57;;;4.20;99.90;;;4.20;71.52;101905.53;4992389;28;20218;-72
2022/01/29 02:50:51;;;;;;;21.92;6.70;;;4.20;99.90;;;4.14;72.28;101900.72;4992152;28;20646;-71
2022/01/29 02:53:21;;;;;;;20.92;7.15;;;4.10;99.90;;;4.07;72.46;101888.84;4991154;28;20175;-70
2022/01/29 02:55:49;;;;;;;22.83;5.28;;;4.10;99.90;;;4.01;72.96;101886.72;4990806;28;20205;-70
2022/01/29 02:58:17;;;;;;;18.80;6.32;;;4.00;99.90;;;4.02;73.58;101883.06;4973762;28;20704;-71
2022/01/29 03:00:46;;;;;;;21.42;6.78;;;4.00;99.90;;;4.15;74.08;101875.63;4991029;28;20808;-69
2022/01/29 03:03:14;;;;;;;22.98;7.38;;;4.10;99.90;;;4.14;74.37;101864.06;4991509;28;20234;-70
2022/01/29 03:05:44;;;;;;;20.55;5.93;;;4.10;99.90;;;4.17;74.67;101868.28;4990553;28;20177;-70
2022/01/29 03:08:13;;;;;;;14.90;6.93;;;4.10;99.90;;;3.99;74.66;101853.84;4973605;28;20222;-70
2022/01/29 03:10:43;;;;;;;19.15;6.85;;;4.00;99.90;;;4.02;74.80;101859.78;4990977;28;20186;-70
2022/01/29 03:13:12;;;;;;;15.88;7.00;;;4.00;99.90;;;4.13;74.73;101848.13;4990958;28;20179;-70
2022/01/29 03:15:40;;;;;;;25.08;7.60;;;4.00;99.90;;;3.98;74.74;101844.13;4990610;28;20187;-70
2022/01/29 03:18:09;;;;;;;15.45;6.15;;;4.00;99.90;;;4.03;74.35;101836.53;4991389;28;20212;-70
2022/01/29 03:20:37;;;;;;;21.58;6.43;;;4.00;99.90;;;3.96;74.99;101838.06;4991802;28;20684;-70
2022/01/29 03:23:05;;;;;;;14.10;6.22;;;3.90;99.90;;;4.04;75.12;101830.19;4991017;28;20183;-71
2022/01/29 03:25:34;;;;;;;27.77;8.07;;;4.00;99.90;;;4.05;74.82;101835.41;4990839;28;20238;-69
2022/01/29 03:28:04;;;;;;;24.00;7.50;;;4.00;99.90;;;3.98;74.96;101831.56;4990551;28;20249;-70
2022/01/29 03:30:32;;;;;;;23.17;6.93;;;4.00;99.90;;;3.94;75.92;101814.09;4990831;28;20187;-69
2022/01/29 03:33:00;;;;;;;19.20;7.43;;;3.90;99.90;;;4.04;75.32;101811.44;4990784;28;20191;-70
2022/01/29 03:35:28;;;;;;;29.17;7.10;;;4.00;99.90;;;3.93;75.26;101797.19;4972937;28;20196;-70
2022/01/29 03:37:57;;;;;;;22.70;7.55;;;3.90;99.90;;;3.96;75.71;101797.91;4990587;28;20265;-70
2022/01/29 03:40:25;;;;;;;31.52;8.00;;;3.90;99.90;;;3.78;75.87;101793.19;4991410;28;20226;-71
2022/01/29 03:43:01;;;;;;;29.48;7.40;;;3.80;99.90;;;3.59;76.33;101777.06;4992988;28;20179;-70
2022/01/29 03:45:31;;;;;;;15.23;7.13;;;3.60;99.90;;;3.68;76.84;101780.78;4976045;28;20190;-70
2022/01/29 03:48:00;;;;;;;23.50;7.68;;;3.60;99.90;;;3.74;76.83;101770.34;4990476;28;20233;-70
2022/01/29 03:50:29;;;;;;;25.02;8.27;;;3.60;99.90;;;3.89;76.78;101770.81;4993094;28;20205;-70
2022/01/29 03:52:57;;;;;;;21.02;7.90;;;3.80;99.90;;;3.77;76.87;101770.09;4995183;28;20210;-70
2022/01/29 03:55:26;;;;;;;20.08;8.55;;;3.80;99.90;;;3.73;76.91;101763.28;4997041;28;20190;-71
2022/01/29 03:57:54;;;;;;;14.27;7.70;;;3.70;99.90;;;3.72;77.02;101750.91;5000420;28;20233;-69
2022/01/29 04:00:22;;;;;;;18.73;8.27;;;3.70;99.90;;;3.79;77.38;101752.03;5000173;28;20190;-71
2022/01/29 04:02:52;;;;;;;23.67;7.40;;;3.70;99.90;;;3.64;77.48;101737.34;5000169;28;20644;-70
2022/01/29 04:05:21;;;;;;;15.88;8.30;;;3.70;99.90;;;3.64;77.73;101736.50;4978767;28;20215;-69
2022/01/29 04:07:49;;;;;;;15.23;7.38;;;3.60;99.90;;;3.72;77.66;101728.66;4975400;28;20615;-71
2022/01/29 04:10:19;;;;;;;19.95;7.82;;;3.70;99.90;;;3.72;77.76;101729.50;4975172;28;20179;-70
2022/01/29 04:12:50;;;;;;;18.50;7.07;;;3.70;99.90;;;3.73;78.11;101724.97;4975049;28;20207;-70
2022/01/29 04:15:19;;;;;;;27.38;9.18;;;3.70;99.90;;;3.69;78.34;101718.19;4974686;28;20199;-70
2022/01/29 04:17:48;;;;;;;28.38;10.70;;;3.70;99.90;;;3.68;78.69;101712.00;4974817;28;20215;-70
2022/01/29 04:20:17;;;;;;;20.42;7.78;;;3.70;99.90;;;3.67;78.99;101707.66;4975104;28;20673;-70
2022/01/29 04:22:45;;;;;;;25.48;10.95;;;3.70;99.90;;;3.65;79.29;101706.94;4974991;28;20639;-70
2022/01/29 04:25:14;;;;;;;24.45;9.98;;;3.70;99.90;;;3.74;78.96;101700.75;4975034;28;20179;-70
2022/01/29 04:27:45;;;;;;;24.77;10.00;;;3.70;99.90;;;3.68;79.12;101693.25;4974928;28;20271;-70
2022/01/29 04:30:24;;;;;;;23.92;10.15;;;3.60;99.90;;;3.76;79.58;101695.25;4975074;28;20180;-70
2022/01/29 04:33:02;;;;;;;24.92;10.75;;;3.70;99.90;;;3.77;79.55;101689.78;4974713;28;20502;-70
2022/01/29 04:35:33;;;;;;;16.45;11.60;;;3.70;99.90;;;3.84;78.67;101680.19;4974459;28;20547;-70
2022/01/29 04:38:01;;;;;;;22.85;10.15;;;3.80;99.90;;;3.96;78.48;101672.03;4974637;28;20246;-70
2022/01/29 04:40:30;;;;;;;24.30;10.77;;;3.90;99.90;;;3.87;79.00;101668.38;4974159;28;20635;-69
2022/01/29 04:42:58;;;;;;;15.32;9.80;;;3.90;99.90;;;3.84;79.47;101658.75;4974640;28;20230;-71
2022/01/29 04:45:26;;;;;;;24.17;12.20;;;3.80;99.90;;;3.92;79.41;101656.22;4973994;28;20179;-70
2022/01/29 04:47:55;;;;;;;27.60;13.07;;;3.80;99.90;;;3.90;79.11;101646.66;4974426;28;20733;-69
2022/01/29 04:50:23;;;;;;;24.75;11.32;;;3.80;99.90;;;3.96;79.22;101647.94;4974353;28;20203;-69
2022/01/29 04:52:53;;;;;;;22.17;11.77;;;3.90;99.90;;;3.96;79.13;101635.38;4973831;28;20191;-69
2022/01/29 04:55:21;;;;;;;24.17;11.82;;;3.90;99.90;;;3.91;78.95;101627.78;4974089;28;20184;-69
2022/01/29 04:57:50;;;;;;;22.33;11.68;;;3.90;99.90;;;3.97;78.51;101625.53;4974064;28;20601;-70
2022/01/29 05:00:20;;;;;;;24.30;12.52;;;3.90;99.90;;;3.91;78.91;101619.75;4974089;28;20701;-70
2022/01/29 05:02:51;;;;;;;21.10;11.88;;;3.90;99.90;;;3.99;79.11;101607.47;4974234;28;20184;-70
2022/01/29 05:05:21;;;;;;;33.25;13.35;;;3.90;99.90;;;3.90;79.12;101615.38;4974551;28;20267;-71
2022/01/29 05:07:49;;;;;;;27.80;14.60;;;3.90;99.90;;;3.96;79.30;101607.75;4973969;28;20599;-70
2022/01/29 05:10:21;;;;;;;22.10;12.00;;;3.90;99.90;;;4.02;79.72;101601.84;4973547;28;20179;-70
2022/01/29 05:12:54;;;;;;;21.95;12.43;;;4.00;99.90;;;4.11;79.27;101600.97;4973625;28;20575;-70
2022/01/29 05:15:29;;;;;;;20.02;11.82;;;4.00;99.90;;;3.97;79.15;101586.16;5013130;23;20234;-70
2022/01/29 05:29:05;;;;;;;21.85;13.25;;;4.00;99.90;;;4.04;79.64;101552.47;5123839;23;20694;-69
2022/01/29 05:31:34;;;;;;;19.67;11.77;;;3.90;99.90;;;3.91;79.27;101552.81;5015168;28;20183;-70
2022/01/29 05:34:03;;;;;;;27.40;12.88;;;3.90;99.90;;;3.87;79.64;101535.31;5015981;28;20178;-70
2022/01/29 05:36:35;;;;;;;21.13;12.50;;;3.80;99.90;;;3.87;80.18;101540.66;5030957;28;20198;-70
2022/01/29 05:39:04;;;;;;;26.83;12.60;;;3.80;99.90;;;3.86;80.18;101538.16;5015591;28;20210;-71
2022/01/29 05:41:34;;;;;;;22.63;11.68;;;3.80;99.90;;;3.86;79.75;101525.59;5014308;28;20675;-72
2022/01/29 05:44:03;;;;;;;27.42;13.52;;;3.80;99.90;;;3.92;80.03;101527.69;5015486;28;20185;-71
2022/01/29 05:46:31;;;;;;;21.58;13.82;;;3.80;99.90;;;3.88;80.12;101514.72;5015602;28;20190;-70
2022/01/29 05:49:00;;;;;;;24.45;12.52;;;3.80;99.90;;;3.87;80.03;101505.03;5014938;28;20206;-71
2022/01/29 05:51:30;;;;;;;31.65;13.13;;;3.80;99.90;;;3.88;80.14;101507.53;5014981;28;20194;-70
2022/01/29 05:53:59;;;;;;;23.88;13.98;;;3.90;99.90;;;3.92;80.62;101506.25;5014924;28;20183;-71
2022/01/29 05:56:28;;;;;;;22.55;12.95;;;3.90;99.90;;;3.88;80.42;101494.16;5014926;28;20185;-71
2022/01/29 05:58:58;;;;;;;32.65;13.80;;;3.90;99.90;;;3.94;80.16;101503.44;5015927;28;20709;-71
2022/01/29 06:01:27;;;;;;;27.67;15.60;;;3.90;99.90;;;3.85;80.53;101477.53;5015446;28;20175;-70
2022/01/29 06:03:55;;;;;;;28.15;13.90;;;3.80;99.90;;;3.89;80.46;101479.78;5014923;28;20201;-70
2022/01/29 06:06:24;;;;;;;24.52;12.88;;;3.80;99.90;;;3.92;80.58;101473.31;5017532;28;20179;-71
2022/01/29 06:08:52;;;;;;;21.35;12.75;;;3.90;99.90;;;3.90;80.26;101468.09;5015335;28;20213;-71
2022/01/29 06:11:22;;;;;;;32.17;14.75;;;3.90;99.90;;;3.85;80.11;101462.31;5015072;28;20240;-71
2022/01/29 06:13:50;;;;;;;27.42;15.60;;;3.90;99.90;;;3.84;80.51;101463.31;5014124;28;20174;-71
2022/01/29 06:16:20;;;;;;;25.90;13.93;;;3.80;99.90;;;3.87;81.04;101457.66;5014348;28;20588;-71
2022/01/29 06:18:48;;;;;;;31.25;14.02;;;3.80;99.90;;;3.91;80.63;101453.72;5014519;28;20217;-71
2022/01/29 06:21:17;;;;;;;21.00;15.30;;;3.90;99.90;;;3.88;80.97;101451.31;5014678;28;20182;-70
2022/01/29 06:23:45;;;;;;;28.83;14.15;;;3.80;99.90;;;3.92;81.10;101444.69;5014543;28;20210;-70
2022/01/29 06:26:16;;;;;;;24.95;14.75;;;3.90;99.90;;;3.96;80.80;101431.00;5014560;28;20221;-72
2022/01/29 06:28:45;;;;;;;31.35;13.80;;;3.90;99.90;;;3.91;81.17;101426.94;5014450;28;20226;-70
2022/01/29 06:31:16;;;;;;;22.08;14.55;;;3.90;99.90;;;4.01;81.20;101424.22;5014604;28;20178;-70
2022/01/29 06:33:45;;;;;;;33.10;15.50;;;3.90;99.90;;;3.93;81.25;101411.56;5014111;28;20424;-71
2022/01/29 06:36:14;;;;;;;30.80;15.57;;;3.90;99.90;;;3.91;81.15;101413.56;5013941;28;20176;-70
2022/01/29 06:38:42;;;;;;;21.80;13.85;;;3.90;99.90;;;3.94;81.24;101407.91;5013923;28;20214;-69
2022/01/29 06:41:10;;;;;;;27.55;13.50;;;3.90;99.90;;;3.94;81.44;101407.91;5013983;28;20574;-70
2022/01/29 06:43:39;;;;;;;24.60;15.80;;;3.90;99.90;;;3.93;81.96;101411.56;5014304;28;20182;-71
2022/01/29 06:46:07;;;;;;;22.42;14.30;;;3.90;99.90;;;3.86;82.05;101399.75;5013988;28;20205;-70
2022/01/29 06:48:35;;;;;;;24.05;15.55;;;3.80;99.90;;;3.96;81.79;101406.91;5013805;28;20265;-70
2022/01/29 06:51:05;;;;;;;26.75;15.65;;;3.90;99.90;;;4.07;81.59;101393.31;5014024;28;20206;-69
2022/01/29 06:53:34;;;;;;;26.42;15.85;;;4.00;99.90;;;4.05;81.48;101398.00;5013854;28;20269;-70
2022/01/29 06:56:02;;;;;;;23.02;13.45;;;4.00;99.90;;;3.84;81.62;101380.31;5013667;28;20197;-70
2022/01/29 06:58:30;;;;;;;23.25;15.52;;;3.90;99.90;;;3.94;81.66;101369.56;5013534;28;20260;-70
2022/01/29 07:01:19;;;;;;;24.80;14.27;;;3.90;99.90;;;3.98;81.48;101375.47;5004893;28;20225;-71
2022/01/29 07:03:47;;;;;;;23.13;14.05;;;3.90;99.90;;;3.97;82.03;101363.09;5013451;28;20345;-71
2022/01/29 07:06:17;;;;;;;23.45;15.30;;;3.90;99.90;;;3.97;82.11;101361.22;5013793;28;20525;-70
2022/01/29 07:08:45;;;;;;;24.55;14.50;;;3.90;99.90;;;3.98;81.95;101359.38;5013929;28;20267;-71
2022/01/29 07:11:14;;;;;;;29.38;16.00;;;3.90;99.90;;;4.01;82.32;101356.44;5013325;28;20281;-70
2022/01/29 07:13:42;;;;;;;25.70;14.02;;;4.00;99.90;;;4.08;81.96;101361.03;5013713;28;20209;-71
2022/01/29 07:16:10;;;;;;;20.70;15.05;;;4.00;99.90;;;4.01;81.85;101353.75;5013475;28;20178;-70
2022/01/29 07:18:38;;;;;;;19.98;14.00;;;4.00;99.90;;;4.05;82.16;101355.13;5013069;28;20627;-70
2022/01/29 07:21:09;;;;;;;18.58;13.35;;;4.00;99.90;;;4.04;81.89;101348.94;5013274;28;20186;-70
2022/01/29 07:23:39;;;;;;;23.17;14.10;;;4.00;99.90;;;4.13;82.40;101342.69;5012582;28;20175;-71
2022/01/29 07:26:07;;;;;;;18.67;13.60;;;4.10;99.90;;;4.24;81.89;101336.28;5011215;28;20293;-71
2022/01/29 07:28:35;;;;;;;17.90;12.93;;;4.10;99.90;;;4.20;82.07;101333.06;5013099;28;20707;-71
2022/01/29 07:31:04;;;;;;;20.35;14.95;;;4.20;99.90;;;4.20;82.25;101326.88;5012943;28;20872;-71
2022/01/29 07:33:32;;;;;;;20.38;14.48;;;4.10;99.90;;;4.21;81.94;101325.88;5004390;28;20191;-72
2022/01/29 07:37:32;;;;;;;24.17;15.02;;;4.20;99.90;;;4.29;82.13;101310.72;5006412;28;20565;-72
2022/01/29 07:40:01;;;;;;;22.13;14.65;;;4.20;99.90;;;4.31;81.91;101302.50;5007597;28;20247;-72
2022/01/29 07:42:30;;;;;;;26.60;17.80;;;4.20;99.90;;;4.30;82.12;101298.19;5013313;28;20615;-72
2022/01/29 07:44:58;;;;;;;19.35;13.38;;;4.20;99.90;;;4.25;82.29;101279.03;5013495;28;20236;-72
2022/01/29 07:47:27;;;;;;;23.33;13.95;;;4.20;99.90;;;4.28;82.39;101270.69;5013841;28;20185;-72
2022/01/29 07:49:55;;;;;;;19.00;14.10;;;4.20;99.90;;;4.28;82.40;101278.72;5013009;28;20308;-72
2022/01/29 07:52:23;;;;;;;19.50;14.10;;;4.20;99.90;;;4.39;82.15;101283.88;5002465;28;20698;-71
2022/01/29 07:54:51;;;;;;;19.13;14.38;;;4.30;99.90;;;4.47;81.80;101265.16;4993111;28;20210;-74
2022/01/29 07:57:21;;;;;;;21.58;14.38;;;4.30;99.90;;;4.47;82.09;101265.16;4993708;28;20190;-72
2022/01/29 07:59:49;;;;;;;18.00;12.80;;;4.40;99.90;;;4.49;82.07;101260.50;4993566;28;20210;-72
2022/01/29 08:02:18;;;;;;;23.33;14.57;;;4.40;99.90;;;4.51;82.12;101252.28;4993472;28;20703;-72
2022/01/29 08:04:48;;;;;;;19.48;13.00;;;4.40;99.90;;;4.42;82.37;101248.72;5004997;28;20198;-70
2022/01/29 08:07:16;;;;;;;19.88;13.05;;;4.40;99.90;;;4.59;81.66;101237.16;5012646;28;20240;-72
2022/01/29 08:09:45;;;;;;;19.80;13.55;;;4.50;99.90;;;4.54;82.09;101238.59;5013253;28;20595;-72
2022/01/29 08:12:13;;;;;;;16.63;12.82;;;4.40;99.90;;;4.52;81.91;101236.06;5013303;28;20221;-72
2022/01/29 08:14:43;;;;;;;21.90;13.70;;;4.50;99.90;;;4.50;82.12;101231.88;5013093;28;20213;-71
2022/01/29 08:17:11;;;;;;;23.30;14.45;;;4.40;99.90;;;4.51;82.24;101234.38;5012930;28;20182;-71
2022/01/29 08:19:39;;;;;;;15.73;13.27;;;4.50;99.90;;;4.53;82.17;101227.03;5012709;28;20217;-72
2022/01/29 08:22:08;;;;;;;24.02;13.80;;;4.50;99.90;;;4.58;82.51;101230.09;5013000;28;20615;-72
2022/01/29 08:24:36;;;;;;;18.10;13.35;;;4.50;99.90;;;4.65;82.52;101231.16;5010838;28;20206;-71
2022/01/29 08:27:05;;;;;;;22.77;13.70;;;4.50;99.90;;;4.62;82.60;101212.69;5012454;28;20197;-73
2022/01/29 08:29:33;;;;;;;16.65;12.73;;;4.60;99.90;;;4.58;82.75;101197.94;5012454;28;20222;-74
2022/01/29 08:32:04;;;;;;;20.35;14.38;;;4.60;99.90;;;4.66;82.75;101195.31;5012468;28;20197;-72
2022/01/29 08:34:33;;;;;;;21.15;14.38;;;4.50;99.90;;;4.69;82.72;101189.66;5012590;28;20295;-72
2022/01/29 08:37:03;;;;;;;19.17;13.82;;;4.60;99.90;;;4.64;82.94;101194.63;5015955;28;20667;-72
2022/01/29 08:39:32;;;;;;;20.65;13.38;;;4.60;99.90;;;4.61;83.10;101189.56;5016059;28;20694;-72
2022/01/29 08:42:00;;;;;;;20.88;14.70;;;4.60;99.90;;;4.59;83.29;101183.53;5003763;28;20187;-71
2022/01/29 08:44:29;;;;;;;17.90;13.65;;;4.50;99.90;;;4.76;83.24;101185.31;4996600;28;20182;-70
2022/01/29 08:46:57;;;;;;;22.08;16.92;;;4.70;99.90;;;4.81;83.11;101174.97;4996516;28;20269;-70
2022/01/29 08:49:27;;;;;;;19.48;15.70;;;4.70;99.90;;;4.77;83.41;101165.56;4996563;28;20265;-72
2022/01/29 08:51:55;;;;;;;21.75;16.15;;;4.70;99.90;;;4.91;83.32;101165.97;4996491;28;20635;-72
2022/01/29 08:54:24;;;;;;;18.95;14.48;;;4.80;99.90;;;4.77;83.87;101162.88;4996826;28;20175;-71
2022/01/29 08:56:52;;;;;;;23.13;16.60;;;4.70;99.90;;;4.84;83.85;101154.22;4997070;28;20693;-72
2022/01/29 08:59:20;;;;;;;20.45;16.05;;;4.80;99.90;;;4.84;83.97;101156.91;4996577;28;20257;-72
2022/01/29 09:01:49;;;;;;;22.30;15.98;;;4.80;99.90;;;4.79;84.02;101146.66;4996312;28;20183;-71
2022/01/29 09:04:17;;;;;;;22.17;15.82;;;4.80;99.90;;;4.84;84.39;101135.44;5008614;28;20713;-72
2022/01/29 09:06:47;;;;;;;22.17;17.75;;;4.80;99.90;;;4.91;84.27;101133.78;5016356;28;20253;-72
2022/01/29 09:09:20;;;;;;;22.77;15.85;;;4.80;99.90;;;4.97;84.12;101128.63;5015590;28;20260;-72
2022/01/29 09:11:49;;;;;;;20.10;15.18;;;4.90;99.90;;;4.91;84.22;101125.75;5015309;28;20201;-72
2022/01/29 09:14:18;;;;;;;20.60;15.18;;;4.80;99.90;;;5.00;84.08;101122.94;5015349;28;20240;-71
2022/01/29 09:16:46;;;;;;;21.10;16.50;;;4.90;99.90;;;5.12;84.34;101110.09;5015376;28;20170;-71
2022/01/29 09:19:14;;;;;;;26.35;16.80;;;5.00;99.90;;;5.09;84.45;101111.25;5015414;28;20248;-71
2022/01/29 09:21:43;;;;;;;21.95;17.05;;;5.00;99.90;;;5.15;84.17;101094.50;5015360;28;20185;-72
2022/01/29 09:24:13;;;;;;;23.27;18.77;;;5.00;99.90;;;5.16;84.11;101084.63;5015746;28;20222;-71
2022/01/29 09:26:41;;;;;;;23.13;17.02;;;5.10;99.90;;;5.09;84.30;101091.63;5015682;28;20186;-71
2022/01/29 09:29:09;;;;;;;22.25;16.23;;;5.00;99.90;;;5.22;84.31;101089.34;5014988;28;20301;-72
2022/01/29 09:31:37;;;;;;;22.88;16.50;;;5.10;99.90;;;5.24;83.86;101095.38;5015404;28;20240;-71
2022/01/29 09:34:06;;;;;;;19.65;16.80;;;5.10;99.90;;;5.38;83.80;101089.38;5016392;28;20217;-71
2022/01/29 09:36:35;;;;;;;23.10;16.88;;;5.20;99.90;;;5.41;83.51;101083.69;5015714;28;20187;-71
2022/01/29 09:39:03;;;;;;;24.85;16.23;;;5.30;99.90;;;5.38;83.41;101075.94;5015189;28;20206;-72
2022/01/29 09:41:37;;;;;;;25.65;17.80;;;5.30;99.90;;;5.31;83.80;101061.53;5015740;28;20190;-72
2022/01/29 09:44:06;;;;;;;25.83;17.85;;;5.30;99.90;;;5.38;84.25;101056.31;5015102;28;20186;-71
2022/01/29 09:46:36;;;;;;;31.23;18.67;;;5.30;99.90;;;5.43;84.18;101054.00;5014835;28;20651;-74
2022/01/29 09:49:06;;;;;;;22.48;18.15;;;5.30;99.90;;;5.36;84.39;101037.72;5015531;28;20210;-73
2022/01/29 09:51:39;;;;;;;31.45;23.45;;;5.30;99.90;;;5.50;84.25;101045.13;5016037;28;20194;-71
2022/01/29 09:54:08;;;;;;;27.42;20.00;;;5.40;99.90;;;5.50;84.46;101029.03;5016682;28;20221;-72
2022/01/29 09:56:38;;;;;;;25.55;18.55;;;5.40;99.90;;;5.55;84.18;101020.47;5014423;28;20248;-70
2022/01/29 09:59:06;;;;;;;32.15;20.15;;;5.40;99.90;;;5.68;84.36;101010.91;5015436;28;20209;-72
2022/01/29 10:01:34;;;;;;;28.95;21.27;;;5.50;99.90;;;5.51;84.33;100998.50;5015200;28;20535;-72
2022/01/29 10:04:06;;;;;;;30.33;20.38;;;5.40;99.90;;;5.67;84.23;101011.91;5014861;28;20189;-70
2022/01/29 10:06:37;;;;;;;34.20;20.70;;;5.50;99.90;;;5.63;84.43;101009.72;5014752;28;20252;-72
2022/01/29 10:09:11;;;;;;;28.60;21.83;;;5.50;99.90;;;5.76;84.41;101012.75;5014642;28;20206;-72
2022/01/29 10:11:41;;;;;;;29.17;22.90;;;5.60;99.90;;;5.82;84.05;101017.44;5012336;28;20425;-71
2022/01/29 10:14:10;;;;;;;33.50;21.50;;;5.70;99.90;;;5.88;84.10;101013.28;5000663;28;20189;-71
2022/01/29 10:16:43;;;;;;;25.50;20.05;;;5.70;99.90;;;5.85;83.99;101009.06;4997338;28;20241;-74
2022/01/29 10:19:13;;;;;;;30.48;23.25;;;5.70;99.90;;;5.95;84.26;101000.88;4994709;28;20203;-71
2022/01/29 10:21:45;;;;;;;35.15;25.80;;;5.80;99.90;;;5.97;84.09;101009.56;4995020;28;20179;-70
2022/01/29 10:24:17;;;;;;;33.10;23.67;;;5.80;99.90;;;6.00;84.11;101001.19;4994688;28;20636;-71
2022/01/29 10:26:49;;;;;;;41.10;24.92;;;5.90;99.90;;;6.06;84.11;100989.75;4995227;28;20198;-71
2022/01/29 10:29:20;;;;;;;27.10;21.38;;;5.90;99.90;;;6.10;84.25;100988.38;4995186;28;20625;-72
2022/01/29 10:31:51;;;;;;;34.00;22.00;;;6.00;99.90;;;6.05;84.11;100980.84;4994637;28;20570;-72
2022/01/29 10:34:25;;;;;;;30.23;23.98;;;6.00;99.90;;;6.03;84.07;100971.28;4994770;28;20544;-71
2022/01/29 10:37:16;;;;;;;32.10;23.63;;;6.00;99.90;;;6.17;84.29;100981.34;4994645;28;20183;-72